National Weather Service Raw Text Product

Displaying AFOS PIL: TAFOTM Received: 2018-01-12 23:33 UTC


394 
FTUS43 KDMX 122333
TAFOTM
TAF
KOTM 122333Z 1300/1324 34015KT P6SM SCT080 BKN250
     FM130600 33011KT P6SM BKN070
     FM131700 34008KT P6SM SCT250=